sensor_id;sensor_type;location;lat;lon;timestamp;temperature;humidity
13794;DHT22;31160;49.500;7.772;2023-12-20T00:01:23;4.40;99.90
13794;DHT22;31160;49.500;7.772;2023-12-20T00:03:52;4.30;99.90
13794;DHT22;31160;49.500;7.772;2023-12-20T00:06:20;4.30;99.90
13794;DHT22;31160;49.500;7.772;2023-12-20T00:08:49;4.40;99.90
13794;DHT22;31160;49.500;7.772;2023-12-20T00:11:16;4.40;99.90
13794;DHT22;31160;49.500;7.772;2023-12-20T00:13:44;4.50;99.90
13794;DHT22;31160;49.500;7.772;2023-12-20T00:16:16;4.40;99.90
13794;DHT22;31160;49.500;7.772;2023-12-20T00:18:43;4.40;99.90
13794;DHT22;31160;49.500;7.772;2023-12-20T00:21:12;4.30;99.90
13794;DHT22;31160;49.500;7.772;2023-12-20T00:23:39;4.40;99.90
13794;DHT22;31160;49.500;7.772;2023-12-20T00:26:06;4.30;99.90
13794;DHT22;31160;49.500;7.772;2023-12-20T00:28:33;4.40;99.90
13794;DHT22;31160;49.500;7.772;2023-12-20T00:31:01;4.40;99.90
13794;DHT22;31160;49.500;7.772;2023-12-20T00:33:29;4.40;99.90
13794;DHT22;31160;49.500;7.772;2023-12-20T00:35:57;4.40;99.90
13794;DHT22;31160;49.500;7.772;2023-12-20T00:38:25;4.30;99.90
13794;DHT22;31160;49.500;7.772;2023-12-20T00:40:52;4.40;99.90
13794;DHT22;31160;49.500;7.772;2023-12-20T00:43:20;4.40;99.90
13794;DHT22;31160;49.500;7.772;2023-12-20T00:45:47;4.40;99.90
13794;DHT22;31160;49.500;7.772;2023-12-20T00:48:14;4.40;99.90
13794;DHT22;31160;49.500;7.772;2023-12-20T00:50:42;4.20;99.90
13794;DHT22;31160;49.500;7.772;2023-12-20T00:53:09;4.30;99.90
13794;DHT22;31160;49.500;7.772;2023-12-20T00:55:37;4.30;99.90
13794;DHT22;31160;49.500;7.772;2023-12-20T00:58:05;4.40;99.90
13794;DHT22;31160;49.500;7.772;2023-12-20T01:00:33;4.30;99.90
13794;DHT22;31160;49.500;7.772;2023-12-20T01:03:00;4.40;99.90
13794;DHT22;31160;49.500;7.772;2023-12-20T01:05:28;4.40;99.90
13794;DHT22;31160;49.500;7.772;2023-12-20T01:07:56;4.40;99.90
13794;DHT22;31160;49.500;7.772;2023-12-20T01:10:23;4.40;99.90
13794;DHT22;31160;49.500;7.772;2023-12-20T01:12:50;4.40;99.90
13794;DHT22;31160;49.500;7.772;2023-12-20T01:15:19;4.50;99.90
13794;DHT22;31160;49.500;7.772;2023-12-20T01:17:46;4.50;99.90
13794;DHT22;31160;49.500;7.772;2023-12-20T01:20:14;4.40;99.90
13794;DHT22;31160;49.500;7.772;2023-12-20T01:22:42;4.40;99.90
13794;DHT22;31160;49.500;7.772;2023-12-20T01:25:13;4.40;99.90
13794;DHT22;31160;49.500;7.772;2023-12-20T01:27:41;4.50;99.90
13794;DHT22;31160;49.500;7.772;2023-12-20T01:30:09;4.40;99.90
13794;DHT22;31160;49.500;7.772;2023-12-20T01:32:37;4.40;99.90
13794;DHT22;31160;49.500;7.772;2023-12-20T01:35:05;4.30;99.90
13794;DHT22;31160;49.500;7.772;2023-12-20T01:37:33;4.30;99.90
13794;DHT22;31160;49.500;7.772;2023-12-20T01:40:01;4.40;99.90
13794;DHT22;31160;49.500;7.772;2023-12-20T01:42:30;4.40;99.90
13794;DHT22;31160;49.500;7.772;2023-12-20T01:44:57;4.50;99.90
13794;DHT22;31160;49.500;7.772;2023-12-20T01:47:25;4.40;99.90
13794;DHT22;31160;49.500;7.772;2023-12-20T01:49:54;4.50;99.90
13794;DHT22;31160;49.500;7.772;2023-12-20T01:52:25;4.60;99.90
13794;DHT22;31160;49.500;7.772;2023-12-20T01:54:54;4.60;99.90
13794;DHT22;31160;49.500;7.772;2023-12-20T01:57:28;4.60;99.90
13794;DHT22;31160;49.500;7.772;2023-12-20T01:59:55;4.50;99.90
13794;DHT22;31160;49.500;7.772;2023-12-20T02:02:24;4.50;99.90
13794;DHT22;31160;49.500;7.772;2023-12-20T02:04:52;4.50;99.90
13794;DHT22;31160;49.500;7.772;2023-12-20T02:07:21;4.60;99.90
13794;DHT22;31160;49.500;7.772;2023-12-20T02:09:48;4.70;99.90
13794;DHT22;31160;49.500;7.772;2023-12-20T02:12:15;4.70;99.90
13794;DHT22;31160;49.500;7.772;2023-12-20T02:14:42;4.70;99.90
13794;DHT22;31160;49.500;7.772;2023-12-20T02:17:09;4.70;99.90
13794;DHT22;31160;49.500;7.772;2023-12-20T02:19:36;4.70;99.90
13794;DHT22;31160;49.500;7.772;2023-12-20T02:22:10;4.70;99.90
13794;DHT22;31160;49.500;7.772;2023-12-20T02:24:37;4.70;99.90
13794;DHT22;31160;49.500;7.772;2023-12-20T02:27:06;4.70;99.90
13794;DHT22;31160;49.500;7.772;2023-12-20T02:29:34;4.70;99.90
13794;DHT22;31160;49.500;7.772;2023-12-20T02:32:01;4.70;99.90
13794;DHT22;31160;49.500;7.772;2023-12-20T02:34:29;4.70;99.90
13794;DHT22;31160;49.500;7.772;2023-12-20T02:36:56;4.80;99.90
13794;DHT22;31160;49.500;7.772;2023-12-20T02:39:23;4.80;99.90
13794;DHT22;31160;49.500;7.772;2023-12-20T02:41:50;4.80;99.90
13794;DHT22;31160;49.500;7.772;2023-12-20T02:44:16;4.80;99.90
13794;DHT22;31160;49.500;7.772;2023-12-20T02:46:43;4.80;99.90
13794;DHT22;31160;49.500;7.772;2023-12-20T02:49:10;4.80;99.90
13794;DHT22;31160;49.500;7.772;2023-12-20T02:51:37;4.90;99.90
13794;DHT22;31160;49.500;7.772;2023-12-20T02:54:06;5.00;99.90
13794;DHT22;31160;49.500;7.772;2023-12-20T02:56:33;4.90;99.90
13794;DHT22;31160;49.500;7.772;2023-12-20T02:59:00;4.90;99.90
13794;DHT22;31160;49.500;7.772;2023-12-20T03:01:28;5.00;99.90
13794;DHT22;31160;49.500;7.772;2023-12-20T03:03:55;5.00;99.90
13794;DHT22;31160;49.500;7.772;2023-12-20T03:06:22;5.10;99.90
13794;DHT22;31160;49.500;7.772;2023-12-20T03:08:49;5.10;99.90
13794;DHT22;31160;49.500;7.772;2023-12-20T03:11:15;5.10;99.90
13794;DHT22;31160;49.500;7.772;2023-12-20T03:13:42;5.10;99.90
13794;DHT22;31160;49.500;7.772;2023-12-20T03:16:10;5.00;99.90
13794;DHT22;31160;49.500;7.772;2023-12-20T03:18:37;4.90;99.90
13794;DHT22;31160;49.500;7.772;2023-12-20T03:21:05;4.90;99.90
13794;DHT22;31160;49.500;7.772;2023-12-20T03:23:32;4.90;99.90
13794;DHT22;31160;49.500;7.772;2023-12-20T03:26:01;5.00;99.90
13794;DHT22;31160;49.500;7.772;2023-12-20T03:28:29;5.00;99.90
13794;DHT22;31160;49.500;7.772;2023-12-20T03:30:56;5.00;99.90
13794;DHT22;31160;49.500;7.772;2023-12-20T03:33:22;5.10;99.90
13794;DHT22;31160;49.500;7.772;2023-12-20T03:35:49;5.10;99.90
13794;DHT22;31160;49.500;7.772;2023-12-20T03:38:16;5.20;99.90
13794;DHT22;31160;49.500;7.772;2023-12-20T03:40:43;5.20;99.90
13794;DHT22;31160;49.500;7.772;2023-12-20T03:43:10;5.20;99.90
13794;DHT22;31160;49.500;7.772;2023-12-20T03:45:36;5.10;99.90
13794;DHT22;31160;49.500;7.772;2023-12-20T03:48:04;5.20;99.90
13794;DHT22;31160;49.500;7.772;2023-12-20T03:50:30;5.20;99.90
13794;DHT22;31160;49.500;7.772;2023-12-20T03:52:57;5.30;99.90
13794;DHT22;31160;49.500;7.772;2023-12-20T03:55:24;5.30;99.90
13794;DHT22;31160;49.500;7.772;2023-12-20T03:57:51;5.10;99.90
13794;DHT22;31160;49.500;7.772;2023-12-20T04:00:18;5.20;99.90
13794;DHT22;31160;49.500;7.772;2023-12-20T04:02:44;5.20;99.90
13794;DHT22;31160;49.500;7.772;2023-12-20T04:05:11;5.30;99.90
13794;DHT22;31160;49.500;7.772;2023-12-20T04:07:39;5.30;99.90
13794;DHT22;31160;49.500;7.772;2023-12-20T04:10:06;5.40;99.90
13794;DHT22;31160;49.500;7.772;2023-12-20T04:12:33;5.30;99.90
13794;DHT22;31160;49.500;7.772;2023-12-20T04:15:00;5.30;99.90
13794;DHT22;31160;49.500;7.772;2023-12-20T04:17:27;5.30;99.90
13794;DHT22;31160;49.500;7.772;2023-12-20T04:19:54;5.40;99.90
13794;DHT22;31160;49.500;7.772;2023-12-20T04:22:21;5.40;99.90
13794;DHT22;31160;49.500;7.772;2023-12-20T04:24:48;5.50;99.90
13794;DHT22;31160;49.500;7.772;2023-12-20T04:27:15;5.40;99.90
13794;DHT22;31160;49.500;7.772;2023-12-20T04:29:41;5.40;99.90
13794;DHT22;31160;49.500;7.772;2023-12-20T04:32:08;5.30;99.90
13794;DHT22;31160;49.500;7.772;2023-12-20T04:34:36;5.30;99.90
13794;DHT22;31160;49.500;7.772;2023-12-20T04:37:03;5.40;99.90
13794;DHT22;31160;49.500;7.772;2023-12-20T04:39:30;5.40;99.90
13794;DHT22;31160;49.500;7.772;2023-12-20T04:41:57;5.40;99.90
13794;DHT22;31160;49.500;7.772;2023-12-20T04:44:23;5.40;99.90
13794;DHT22;31160;49.500;7.772;2023-12-20T04:46:50;5.40;99.90
13794;DHT22;31160;49.500;7.772;2023-12-20T04:49:17;5.40;99.90
13794;DHT22;31160;49.500;7.772;2023-12-20T04:51:44;5.40;99.90
13794;DHT22;31160;49.500;7.772;2023-12-20T04:54:10;5.40;99.90
13794;DHT22;31160;49.500;7.772;2023-12-20T04:56:37;5.30;99.90
13794;DHT22;31160;49.500;7.772;2023-12-20T04:59:04;5.30;99.90
13794;DHT22;31160;49.500;7.772;2023-12-20T05:01:32;5.30;99.90
13794;DHT22;31160;49.500;7.772;2023-12-20T05:03:59;5.20;99.90
13794;DHT22;31160;49.500;7.772;2023-12-20T05:06:26;5.30;99.90
13794;DHT22;31160;49.500;7.772;2023-12-20T05:08:52;5.30;99.90
13794;DHT22;31160;49.500;7.772;2023-12-20T05:11:19;5.20;99.90
13794;DHT22;31160;49.500;7.772;2023-12-20T05:13:46;5.40;99.90
13794;DHT22;31160;49.500;7.772;2023-12-20T05:16:16;5.40;99.90
13794;DHT22;31160;49.500;7.772;2023-12-20T05:18:46;5.60;99.90
13794;DHT22;31160;49.500;7.772;2023-12-20T05:21:13;5.40;99.90
13794;DHT22;31160;49.500;7.772;2023-12-20T05:23:40;5.50;99.90
13794;DHT22;31160;49.500;7.772;2023-12-20T05:26:06;5.60;99.90
13794;DHT22;31160;49.500;7.772;2023-12-20T05:28:33;5.70;99.90
13794;DHT22;31160;49.500;7.772;2023-12-20T05:31:00;5.60;99.90
13794;DHT22;31160;49.500;7.772;2023-12-20T05:33:27;5.60;99.90
13794;DHT22;31160;49.500;7.772;2023-12-20T05:35:54;5.60;99.90
13794;DHT22;31160;49.500;7.772;2023-12-20T05:38:21;5.60;99.90
13794;DHT22;31160;49.500;7.772;2023-12-20T05:40:48;5.60;99.90
13794;DHT22;31160;49.500;7.772;2023-12-20T05:43:14;5.50;99.90
13794;DHT22;31160;49.500;7.772;2023-12-20T05:45:41;5.60;99.90
13794;DHT22;31160;49.500;7.772;2023-12-20T05:48:08;5.60;99.90
13794;DHT22;31160;49.500;7.772;2023-12-20T05:50:35;5.60;99.90
13794;DHT22;31160;49.500;7.772;2023-12-20T05:53:03;5.50;99.90
13794;DHT22;31160;49.500;7.772;2023-12-20T05:55:30;5.40;99.90
13794;DHT22;31160;49.500;7.772;2023-12-20T05:57:56;5.40;99.90
13794;DHT22;31160;49.500;7.772;2023-12-20T06:00:24;5.30;99.90
13794;DHT22;31160;49.500;7.772;2023-12-20T06:02:51;5.40;99.90
13794;DHT22;31160;49.500;7.772;2023-12-20T06:05:18;5.40;99.90
13794;DHT22;31160;49.500;7.772;2023-12-20T06:07:45;5.40;99.90
13794;DHT22;31160;49.500;7.772;2023-12-20T06:10:15;5.30;99.90
13794;DHT22;31160;49.500;7.772;2023-12-20T06:12:42;5.20;99.90
13794;DHT22;31160;49.500;7.772;2023-12-20T06:15:09;5.20;99.90
13794;DHT22;31160;49.500;7.772;2023-12-20T06:17:36;5.10;99.90
13794;DHT22;31160;49.500;7.772;2023-12-20T06:20:03;5.00;99.90
13794;DHT22;31160;49.500;7.772;2023-12-20T06:22:35;5.00;99.90
13794;DHT22;31160;49.500;7.772;2023-12-20T06:25:02;4.90;99.90
13794;DHT22;31160;49.500;7.772;2023-12-20T06:27:29;4.90;99.90
13794;DHT22;31160;49.500;7.772;2023-12-20T06:29:58;4.80;99.90
13794;DHT22;31160;49.500;7.772;2023-12-20T06:32:25;4.70;99.90
13794;DHT22;31160;49.500;7.772;2023-12-20T06:34:52;4.70;99.90
13794;DHT22;31160;49.500;7.772;2023-12-20T06:37:19;4.60;99.90
13794;DHT22;31160;49.500;7.772;2023-12-20T06:39:46;4.60;99.90
13794;DHT22;31160;49.500;7.772;2023-12-20T06:42:13;4.60;99.90
13794;DHT22;31160;49.500;7.772;2023-12-20T06:44:40;4.60;99.90
13794;DHT22;31160;49.500;7.772;2023-12-20T06:47:06;4.50;99.90
13794;DHT22;31160;49.500;7.772;2023-12-20T06:49:33;4.50;99.90
13794;DHT22;31160;49.500;7.772;2023-12-20T06:52:00;4.50;99.90
13794;DHT22;31160;49.500;7.772;2023-12-20T06:54:27;4.50;99.90
13794;DHT22;31160;49.500;7.772;2023-12-20T06:56:54;4.50;99.90
13794;DHT22;31160;49.500;7.772;2023-12-20T06:59:20;4.50;99.90
13794;DHT22;31160;49.500;7.772;2023-12-20T07:01:48;4.50;99.90
13794;DHT22;31160;49.500;7.772;2023-12-20T07:04:16;4.50;99.90
13794;DHT22;31160;49.500;7.772;2023-12-20T07:06:47;4.50;99.90
13794;DHT22;31160;49.500;7.772;2023-12-20T07:09:14;4.60;99.90
13794;DHT22;31160;49.500;7.772;2023-12-20T07:11:41;4.60;99.90
13794;DHT22;31160;49.500;7.772;2023-12-20T07:14:08;4.70;99.90
13794;DHT22;31160;49.500;7.772;2023-12-20T07:16:35;4.60;99.90
13794;DHT22;31160;49.500;7.772;2023-12-20T07:19:02;4.60;99.90
13794;DHT22;31160;49.500;7.772;2023-12-20T07:21:29;4.50;99.90
13794;DHT22;31160;49.500;7.772;2023-12-20T07:23:56;4.50;99.90
13794;DHT22;31160;49.500;7.772;2023-12-20T07:26:23;4.40;99.90
13794;DHT22;31160;49.500;7.772;2023-12-20T07:28:50;4.30;99.90
13794;DHT22;31160;49.500;7.772;2023-12-20T07:31:17;4.30;99.90
13794;DHT22;31160;49.500;7.772;2023-12-20T07:33:44;4.30;99.90
13794;DHT22;31160;49.500;7.772;2023-12-20T07:36:12;4.20;99.90
13794;DHT22;31160;49.500;7.772;2023-12-20T07:38:39;4.20;99.90
13794;DHT22;31160;49.500;7.772;2023-12-20T07:41:05;4.20;99.90
13794;DHT22;31160;49.500;7.772;2023-12-20T07:43:32;4.20;99.90
13794;DHT22;31160;49.500;7.772;2023-12-20T07:46:05;4.30;99.90
13794;DHT22;31160;49.500;7.772;2023-12-20T07:48:32;4.30;99.90
13794;DHT22;31160;49.500;7.772;2023-12-20T07:50:58;4.20;99.90
13794;DHT22;31160;49.500;7.772;2023-12-20T07:53:25;4.30;99.90
13794;DHT22;31160;49.500;7.772;2023-12-20T07:55:52;4.30;99.90
13794;DHT22;31160;49.500;7.772;2023-12-20T07:58:19;4.20;99.90
13794;DHT22;31160;49.500;7.772;2023-12-20T08:00:46;4.20;99.90
13794;DHT22;31160;49.500;7.772;2023-12-20T08:03:13;4.10;99.90
13794;DHT22;31160;49.500;7.772;2023-12-20T08:05:40;4.10;99.90
13794;DHT22;31160;49.500;7.772;2023-12-20T08:08:07;4.00;99.90
13794;DHT22;31160;49.500;7.772;2023-12-20T08:10:34;4.00;99.90
13794;DHT22;31160;49.500;7.772;2023-12-20T08:13:01;4.10;99.90
13794;DHT22;31160;49.500;7.772;2023-12-20T08:15:28;4.10;99.90
13794;DHT22;31160;49.500;7.772;2023-12-20T08:17:55;4.20;99.90
13794;DHT22;31160;49.500;7.772;2023-12-20T08:20:21;4.30;99.90
13794;DHT22;31160;49.500;7.772;2023-12-20T08:22:58;4.20;99.90
13794;DHT22;31160;49.500;7.772;2023-12-20T08:25:25;4.20;99.90
13794;DHT22;31160;49.500;7.772;2023-12-20T08:27:52;4.20;99.90
13794;DHT22;31160;49.500;7.772;2023-12-20T08:30:19;4.20;99.90
13794;DHT22;31160;49.500;7.772;2023-12-20T08:32:48;4.20;99.90
13794;DHT22;31160;49.500;7.772;2023-12-20T08:35:15;4.30;99.90
13794;DHT22;31160;49.500;7.772;2023-12-20T08:37:42;4.40;99.90
13794;DHT22;31160;49.500;7.772;2023-12-20T08:40:09;4.40;99.90
13794;DHT22;31160;49.500;7.772;2023-12-20T08:42:36;4.60;99.90
13794;DHT22;31160;49.500;7.772;2023-12-20T08:45:03;4.70;99.90
13794;DHT22;31160;49.500;7.772;2023-12-20T08:47:31;4.70;99.90
13794;DHT22;31160;49.500;7.772;2023-12-20T08:49:58;4.70;99.90
13794;DHT22;31160;49.500;7.772;2023-12-20T08:52:26;4.70;99.90
13794;DHT22;31160;49.500;7.772;2023-12-20T08:54:53;4.90;99.90
13794;DHT22;31160;49.500;7.772;2023-12-20T08:57:21;5.00;99.90
13794;DHT22;31160;49.500;7.772;2023-12-20T08:59:47;5.10;99.90
13794;DHT22;31160;49.500;7.772;2023-12-20T09:02:14;5.00;99.90
13794;DHT22;31160;49.500;7.772;2023-12-20T09:04:42;5.10;99.90
13794;DHT22;31160;49.500;7.772;2023-12-20T09:07:41;5.10;99.90
13794;DHT22;31160;49.500;7.772;2023-12-20T09:10:08;5.30;99.90
13794;DHT22;31160;49.500;7.772;2023-12-20T09:12:35;5.30;99.90
13794;DHT22;31160;49.500;7.772;2023-12-20T09:15:02;5.40;99.90
13794;DHT22;31160;49.500;7.772;2023-12-20T09:17:29;5.50;99.90
13794;DHT22;31160;49.500;7.772;2023-12-20T09:19:56;5.50;99.90
13794;DHT22;31160;49.500;7.772;2023-12-20T09:22:23;5.60;99.90
13794;DHT22;31160;49.500;7.772;2023-12-20T09:24:50;5.60;99.90
13794;DHT22;31160;49.500;7.772;2023-12-20T09:27:16;5.70;99.90
13794;DHT22;31160;49.500;7.772;2023-12-20T09:29:43;5.90;99.90
13794;DHT22;31160;49.500;7.772;2023-12-20T09:32:10;6.00;99.90
13794;DHT22;31160;49.500;7.772;2023-12-20T09:34:37;6.10;99.90
13794;DHT22;31160;49.500;7.772;2023-12-20T09:37:04;6.20;99.90
13794;DHT22;31160;49.500;7.772;2023-12-20T09:39:32;6.20;99.90
13794;DHT22;31160;49.500;7.772;2023-12-20T09:42:06;6.30;99.90
13794;DHT22;31160;49.500;7.772;2023-12-20T09:44:34;6.40;99.90
13794;DHT22;31160;49.500;7.772;2023-12-20T09:47:05;6.30;99.90
13794;DHT22;31160;49.500;7.772;2023-12-20T09:49:33;6.20;99.90
13794;DHT22;31160;49.500;7.772;2023-12-20T09:52:00;6.20;99.90
13794;DHT22;31160;49.500;7.772;2023-12-20T09:54:28;6.30;99.90
13794;DHT22;31160;49.500;7.772;2023-12-20T09:56:55;6.20;99.90
13794;DHT22;31160;49.500;7.772;2023-12-20T09:59:22;6.10;99.90
13794;DHT22;31160;49.500;7.772;2023-12-20T10:01:50;5.90;99.90
13794;DHT22;31160;49.500;7.772;2023-12-20T10:04:21;5.80;99.90
13794;DHT22;31160;49.500;7.772;2023-12-20T10:06:56;5.90;99.90
13794;DHT22;31160;49.500;7.772;2023-12-20T10:09:24;6.00;99.90
13794;DHT22;31160;49.500;7.772;2023-12-20T10:11:54;6.00;99.90
13794;DHT22;31160;49.500;7.772;2023-12-20T10:14:21;6.00;99.90
13794;DHT22;31160;49.500;7.772;2023-12-20T10:16:50;5.70;99.90
13794;DHT22;31160;49.500;7.772;2023-12-20T10:19:17;5.70;99.90
13794;DHT22;31160;49.500;7.772;2023-12-20T10:21:45;5.70;99.90
13794;DHT22;31160;49.500;7.772;2023-12-20T10:24:17;5.60;99.90
13794;DHT22;31160;49.500;7.772;2023-12-20T10:26:44;5.80;99.90
13794;DHT22;31160;49.500;7.772;2023-12-20T10:29:11;5.80;99.90
13794;DHT22;31160;49.500;7.772;2023-12-20T10:31:38;5.80;99.90
13794;DHT22;31160;49.500;7.772;2023-12-20T10:34:09;5.90;99.90
13794;DHT22;31160;49.500;7.772;2023-12-20T10:36:36;5.80;99.90
13794;DHT22;31160;49.500;7.772;2023-12-20T10:39:04;5.80;99.90
13794;DHT22;31160;49.500;7.772;2023-12-20T10:41:33;5.60;99.90
13794;DHT22;31160;49.500;7.772;2023-12-20T10:44:03;5.60;99.90
13794;DHT22;31160;49.500;7.772;2023-12-20T10:46:31;5.70;99.90
13794;DHT22;31160;49.500;7.772;2023-12-20T10:49:05;5.60;99.90
13794;DHT22;31160;49.500;7.772;2023-12-20T10:51:32;5.70;99.90
13794;DHT22;31160;49.500;7.772;2023-12-20T10:54:00;5.80;99.90
13794;DHT22;31160;49.500;7.772;2023-12-20T10:56:31;5.90;99.90
13794;DHT22;31160;49.500;7.772;2023-12-20T10:59:01;6.00;99.90
13794;DHT22;31160;49.500;7.772;2023-12-20T11:01:30;6.00;99.90
13794;DHT22;31160;49.500;7.772;2023-12-20T11:03:57;6.00;99.90
13794;DHT22;31160;49.500;7.772;2023-12-20T11:14:55;6.00;99.90
13794;DHT22;31160;49.500;7.772;2023-12-20T11:17:15;5.80;99.90
13794;DHT22;31160;49.500;7.772;2023-12-20T11:22:25;5.70;99.90
13794;DHT22;31160;49.500;7.772;2023-12-20T11:24:53;5.80;99.90
13794;DHT22;31160;49.500;7.772;2023-12-20T11:27:20;5.70;99.90
13794;DHT22;31160;49.500;7.772;2023-12-20T11:29:54;5.70;99.90
13794;DHT22;31160;49.500;7.772;2023-12-20T11:35:38;5.70;99.90
13794;DHT22;31160;49.500;7.772;2023-12-20T11:37:46;5.80;99.90
13794;DHT22;31160;49.500;7.772;2023-12-20T11:40:17;5.70;99.90
13794;DHT22;31160;49.500;7.772;2023-12-20T11:42:49;5.80;99.90
13794;DHT22;31160;49.500;7.772;2023-12-20T11:45:18;5.90;99.90
13794;DHT22;31160;49.500;7.772;2023-12-20T11:47:49;5.80;99.90
13794;DHT22;31160;49.500;7.772;2023-12-20T11:50:23;6.00;99.90
13794;DHT22;31160;49.500;7.772;2023-12-20T11:52:52;6.30;99.90
13794;DHT22;31160;49.500;7.772;2023-12-20T11:55:19;6.30;99.90
13794;DHT22;31160;49.500;7.772;2023-12-20T11:57:45;6.30;99.90
13794;DHT22;31160;49.500;7.772;2023-12-20T12:00:14;6.40;99.90
13794;DHT22;31160;49.500;7.772;2023-12-20T12:02:41;6.30;99.90
13794;DHT22;31160;49.500;7.772;2023-12-20T12:05:08;6.10;99.90
13794;DHT22;31160;49.500;7.772;2023-12-20T12:07:35;6.20;99.90
13794;DHT22;31160;49.500;7.772;2023-12-20T12:10:02;6.30;99.90
13794;DHT22;31160;49.500;7.772;2023-12-20T12:12:30;6.20;99.90
13794;DHT22;31160;49.500;7.772;2023-12-20T12:14:57;6.20;99.90
13794;DHT22;31160;49.500;7.772;2023-12-20T12:17:24;6.30;99.90
13794;DHT22;31160;49.500;7.772;2023-12-20T12:20:05;6.30;99.90
13794;DHT22;31160;49.500;7.772;2023-12-20T12:22:32;6.20;99.90
13794;DHT22;31160;49.500;7.772;2023-12-20T12:25:09;6.00;99.90
13794;DHT22;31160;49.500;7.772;2023-12-20T12:27:40;6.10;99.90
13794;DHT22;31160;49.500;7.772;2023-12-20T12:30:08;6.10;99.90
13794;DHT22;31160;49.500;7.772;2023-12-20T12:32:36;6.00;99.90
13794;DHT22;31160;49.500;7.772;2023-12-20T12:35:04;6.00;99.90
13794;DHT22;31160;49.500;7.772;2023-12-20T12:37:40;6.00;99.90
13794;DHT22;31160;49.500;7.772;2023-12-20T12:42:40;6.00;99.90
13794;DHT22;31160;49.500;7.772;2023-12-20T12:45:07;5.90;99.90
13794;DHT22;31160;49.500;7.772;2023-12-20T12:47:35;6.00;99.90
13794;DHT22;31160;49.500;7.772;2023-12-20T12:50:02;6.20;99.90
13794;DHT22;31160;49.500;7.772;2023-12-20T12:52:30;6.40;99.90
13794;DHT22;31160;49.500;7.772;2023-12-20T12:54:57;6.40;99.90
13794;DHT22;31160;49.500;7.772;2023-12-20T12:57:24;6.40;99.90
13794;DHT22;31160;49.500;7.772;2023-12-20T12:59:51;6.20;99.90
13794;DHT22;31160;49.500;7.772;2023-12-20T13:02:18;6.40;99.90
13794;DHT22;31160;49.500;7.772;2023-12-20T13:04:45;6.40;99.90
13794;DHT22;31160;49.500;7.772;2023-12-20T13:07:12;6.50;99.90
13794;DHT22;31160;49.500;7.772;2023-12-20T13:09:39;6.30;99.90
13794;DHT22;31160;49.500;7.772;2023-12-20T13:12:06;6.20;99.90
13794;DHT22;31160;49.500;7.772;2023-12-20T13:14:34;5.90;99.90
13794;DHT22;31160;49.500;7.772;2023-12-20T13:17:03;5.90;99.90
13794;DHT22;31160;49.500;7.772;2023-12-20T13:19:30;6.00;99.90
13794;DHT22;31160;49.500;7.772;2023-12-20T13:21:57;6.00;99.90
13794;DHT22;31160;49.500;7.772;2023-12-20T13:24:27;6.20;99.90
13794;DHT22;31160;49.500;7.772;2023-12-20T13:26:54;6.30;99.90
13794;DHT22;31160;49.500;7.772;2023-12-20T13:29:21;6.50;99.90
13794;DHT22;31160;49.500;7.772;2023-12-20T13:31:48;6.80;99.90
13794;DHT22;31160;49.500;7.772;2023-12-20T13:34:16;6.70;99.90
13794;DHT22;31160;49.500;7.772;2023-12-20T13:36:44;6.90;99.90
13794;DHT22;31160;49.500;7.772;2023-12-20T13:39:14;7.10;99.90
13794;DHT22;31160;49.500;7.772;2023-12-20T13:41:40;6.90;99.90
13794;DHT22;31160;49.500;7.772;2023-12-20T13:44:07;6.90;99.90
13794;DHT22;31160;49.500;7.772;2023-12-20T13:46:34;7.30;99.90
13794;DHT22;31160;49.500;7.772;2023-12-20T13:49:00;7.20;99.90
13794;DHT22;31160;49.500;7.772;2023-12-20T13:51:28;6.90;99.90
13794;DHT22;31160;49.500;7.772;2023-12-20T13:53:55;6.90;99.90
13794;DHT22;31160;49.500;7.772;2023-12-20T13:56:21;6.80;99.90
13794;DHT22;31160;49.500;7.772;2023-12-20T13:58:49;7.10;99.90
13794;DHT22;31160;49.500;7.772;2023-12-20T14:01:17;7.10;99.90
13794;DHT22;31160;49.500;7.772;2023-12-20T14:03:44;7.20;99.90
13794;DHT22;31160;49.500;7.772;2023-12-20T14:06:11;7.00;99.90
13794;DHT22;31160;49.500;7.772;2023-12-20T14:08:38;7.00;99.90
13794;DHT22;31160;49.500;7.772;2023-12-20T14:11:05;6.80;99.90
13794;DHT22;31160;49.500;7.772;2023-12-20T14:13:31;6.80;99.90
13794;DHT22;31160;49.500;7.772;2023-12-20T14:15:58;6.70;99.90
13794;DHT22;31160;49.500;7.772;2023-12-20T14:18:27;6.80;99.90
13794;DHT22;31160;49.500;7.772;2023-12-20T14:20:54;6.70;99.90
13794;DHT22;31160;49.500;7.772;2023-12-20T14:23:21;6.70;99.90
13794;DHT22;31160;49.500;7.772;2023-12-20T14:25:49;6.70;99.90
13794;DHT22;31160;49.500;7.772;2023-12-20T14:28:19;6.50;99.90
13794;DHT22;31160;49.500;7.772;2023-12-20T14:30:46;6.50;99.90
13794;DHT22;31160;49.500;7.772;2023-12-20T14:33:13;6.50;99.90
13794;DHT22;31160;49.500;7.772;2023-12-20T14:35:40;6.40;99.90
13794;DHT22;31160;49.500;7.772;2023-12-20T14:38:11;6.40;99.90
13794;DHT22;31160;49.500;7.772;2023-12-20T14:40:40;6.50;99.90
13794;DHT22;31160;49.500;7.772;2023-12-20T14:43:07;6.30;99.90
13794;DHT22;31160;49.500;7.772;2023-12-20T14:45:34;6.30;99.90
13794;DHT22;31160;49.500;7.772;2023-12-20T14:48:01;6.40;99.90
13794;DHT22;31160;49.500;7.772;2023-12-20T14:50:28;6.40;99.90
13794;DHT22;31160;49.500;7.772;2023-12-20T14:52:55;6.30;99.90
13794;DHT22;31160;49.500;7.772;2023-12-20T14:55:22;6.20;99.90
13794;DHT22;31160;49.500;7.772;2023-12-20T14:57:49;6.20;99.90
13794;DHT22;31160;49.500;7.772;2023-12-20T15:00:16;6.20;99.90
13794;DHT22;31160;49.500;7.772;2023-12-20T15:02:44;6.30;99.90
13794;DHT22;31160;49.500;7.772;2023-12-20T15:05:11;6.30;99.90
13794;DHT22;31160;49.500;7.772;2023-12-20T15:07:38;6.20;99.90
13794;DHT22;31160;49.500;7.772;2023-12-20T15:10:05;6.00;99.90
13794;DHT22;31160;49.500;7.772;2023-12-20T15:12:32;6.00;99.90
13794;DHT22;31160;49.500;7.772;2023-12-20T15:15:00;6.20;99.90
13794;DHT22;31160;49.500;7.772;2023-12-20T15:17:27;6.10;99.90
13794;DHT22;31160;49.500;7.772;2023-12-20T15:19:54;6.10;99.90
13794;DHT22;31160;49.500;7.772;2023-12-20T15:22:21;6.20;99.90
13794;DHT22;31160;49.500;7.772;2023-12-20T15:24:48;6.20;99.90
13794;DHT22;31160;49.500;7.772;2023-12-20T15:27:14;6.20;99.90
13794;DHT22;31160;49.500;7.772;2023-12-20T15:29:42;6.20;99.90
13794;DHT22;31160;49.500;7.772;2023-12-20T15:32:09;6.20;99.90
13794;DHT22;31160;49.500;7.772;2023-12-20T15:34:36;6.10;99.90
13794;DHT22;31160;49.500;7.772;2023-12-20T15:37:03;6.20;99.90
13794;DHT22;31160;49.500;7.772;2023-12-20T15:39:30;6.20;99.90
13794;DHT22;31160;49.500;7.772;2023-12-20T15:41:57;6.20;99.90
13794;DHT22;31160;49.500;7.772;2023-12-20T15:44:24;6.30;99.90
13794;DHT22;31160;49.500;7.772;2023-12-20T15:46:51;6.30;99.90
13794;DHT22;31160;49.500;7.772;2023-12-20T15:49:18;6.30;99.90
13794;DHT22;31160;49.500;7.772;2023-12-20T15:51:45;6.20;99.90
13794;DHT22;31160;49.500;7.772;2023-12-20T15:54:12;6.10;99.90
13794;DHT22;31160;49.500;7.772;2023-12-20T15:56:39;6.20;99.90
13794;DHT22;31160;49.500;7.772;2023-12-20T15:59:07;6.20;99.90
13794;DHT22;31160;49.500;7.772;2023-12-20T16:01:36;6.20;99.90
13794;DHT22;31160;49.500;7.772;2023-12-20T16:04:03;6.10;99.90